Time;durP1;ratioP1;P1;durP2;ratioP2;P2;SDS_P1;SDS_P2;PMS_P1;PMS_P2;Temp;Humidity;BMP_temperature;BMP_pressure;BME280_temperature;BME280_humidity;BME280_pressure;Samples;Min_cycle;Max_cycle;Signal;HPM_P1;HPM_P2
2022/08/26 00:00:47;;;;;;;1.70;1.42;;;;;;;9.55;100.00;101339.16;5022108;28;20114;-50
2022/08/26 00:03:13;;;;;;;1.27;0.85;;;;;;;9.55;100.00;101339.16;5025493;28;20061;-50
2022/08/26 00:05:40;;;;;;;3.25;2.58;;;;;;;9.63;100.00;101337.50;5022999;28;20080;-50
2022/08/26 00:08:06;;;;;;;5.80;3.92;;;;;;;9.69;100.00;101337.69;5019324;28;20038;-53
2022/08/26 00:10:32;;;;;;;1.65;1.55;;;;;;;9.71;100.00;101341.00;5015277;28;20494;-50
2022/08/26 00:12:57;;;;;;;3.60;1.98;;;;;;;9.66;100.00;101343.31;5023882;28;20062;-49
2022/08/26 00:15:23;;;;;;;5.38;1.50;;;;;;;9.62;100.00;101334.03;5029576;28;20022;-52
2022/08/26 00:17:49;;;;;;;2.80;2.20;;;;;;;9.60;100.00;101342.16;5014821;28;20026;-51
2022/08/26 00:20:19;;;;;;;2.65;1.65;;;;;;;9.64;100.00;101341.81;5019003;28;20049;-49
2022/08/26 00:22:44;;;;;;;2.10;1.83;;;;;;;9.66;100.00;101340.66;5029199;28;20021;-55
2022/08/26 00:25:11;;;;;;;5.07;1.70;;;;;;;9.68;100.00;101343.13;5027857;28;20038;-50
2022/08/26 00:27:37;;;;;;;4.82;1.50;;;;;;;9.66;100.00;101342.50;5018732;28;20430;-52
2022/08/26 00:30:07;;;;;;;4.32;2.25;;;;;;;9.56;100.00;101338.16;5018871;28;20100;-50
2022/08/26 00:32:32;;;;;;;2.53;1.60;;;;;;;9.45;100.00;101342.94;5027783;28;20033;-49
2022/08/26 00:34:58;;;;;;;6.38;2.35;;;;;;;9.39;100.00;101339.94;5023336;28;20395;-54
2022/08/26 00:37:23;;;;;;;3.05;1.73;;;;;;;9.41;100.00;101342.44;5015757;28;20039;-51
2022/08/26 00:39:49;;;;;;;3.47;1.55;;;;;;;9.44;100.00;101349.22;5026831;28;20490;-52
2022/08/26 00:42:14;;;;;;;6.32;2.53;;;;;;;9.47;100.00;101346.25;5014360;28;20037;-51
2022/08/26 00:44:39;;;;;;;5.00;2.50;;;;;;;9.53;100.00;101353.56;5023930;28;20014;-56
2022/08/26 00:47:15;;;;;;;7.15;1.67;;;;;;;9.61;100.00;101349.09;5018369;28;20108;-50
2022/08/26 00:49:44;;;;;;;3.67;2.38;;;;;;;9.63;100.00;101351.59;5020876;28;20053;-50
2022/08/26 00:52:17;;;;;;;2.80;2.15;;;;;;;9.56;100.00;101347.94;5019755;28;20025;-51
2022/08/26 00:54:51;;;;;;;4.13;2.97;;;;;;;9.52;100.00;101350.06;5019409;28;20040;-52
2022/08/26 00:57:18;;;;;;;5.80;2.20;;;;;;;9.54;100.00;101356.03;5015195;28;20386;-53
2022/08/26 00:59:47;;;;;;;2.75;2.10;;;;;;;9.57;100.00;101353.06;5014948;28;20029;-51
2022/08/26 01:02:13;;;;;;;1.80;1.70;;;;;;;9.46;100.00;101358.66;5017688;28;20534;-50
2022/08/26 01:04:40;;;;;;;3.10;2.80;;;;;;;9.47;100.00;101357.66;5022009;28;20021;-52
2022/08/26 01:07:06;;;;;;;3.85;2.53;;;;;;;9.53;100.00;101358.84;5019950;28;20495;-51
2022/08/26 01:09:32;;;;;;;5.95;3.40;;;;;;;9.59;100.00;101351.06;5016984;28;20068;-51
2022/08/26 01:12:00;;;;;;;3.85;3.33;;;;;;;9.65;100.00;101359.34;5022638;28;20053;-54
2022/08/26 01:14:31;;;;;;;5.95;2.95;;;;;;;9.63;100.00;101362.19;5014106;28;20033;-54
2022/08/26 01:16:57;;;;;;;5.28;3.10;;;;;;;9.66;100.00;101361.84;5020666;28;20073;-50
2022/08/26 01:19:28;;;;;;;4.55;3.10;;;;;;;9.69;100.00;101360.69;5015839;28;20026;-51
2022/08/26 01:22:01;;;;;;;3.72;2.78;;;;;;;9.69;100.00;101366.81;5016993;28;20037;-53
2022/08/26 01:24:29;;;;;;;4.00;3.00;;;;;;;9.70;100.00;101371.09;5025513;28;20067;-51
2022/08/26 01:27:03;;;;;;;4.85;2.47;;;;;;;9.69;100.00;101366.81;5026807;28;20044;-50
2022/08/26 01:29:31;;;;;;;3.25;2.08;;;;;;;9.70;100.00;101370.28;5021703;28;20123;-52
2022/08/26 01:31:56;;;;;;;4.38;3.17;;;;;;;9.66;100.00;101380.38;5018504;28;20026;-54
2022/08/26 01:34:26;;;;;;;3.00;2.38;;;;;;;9.61;100.00;101374.75;5013641;28;20036;-52
2022/08/26 01:37:14;;;;;;;3.17;2.15;;;;;;;9.46;100.00;101377.19;5025388;28;20121;-51
2022/08/26 01:39:40;;;;;;;5.63;2.50;;;;;;;9.35;100.00;101375.69;5019129;28;20109;-51
2022/08/26 01:42:11;;;;;;;6.30;2.88;;;;;;;9.30;100.00;101377.97;5014466;28;20053;-55
2022/08/26 01:44:52;;;;;;;2.10;1.90;;;;;;;9.30;100.00;101377.16;5021958;28;20025;-52
2022/08/26 01:47:20;;;;;;;4.07;2.45;;;;;;;9.33;100.00;101377.66;5017683;28;20289;-51
2022/08/26 01:49:50;;;;;;;3.63;3.08;;;;;;;9.44;100.00;101386.28;5016508;28;20510;-48
2022/08/26 01:52:20;;;;;;;4.93;3.10;;;;;;;9.47;100.00;101383.31;5014314;28;20025;-51
2022/08/26 01:54:46;;;;;;;5.78;3.25;;;;;;;9.52;100.00;101387.13;5021741;28;20436;-51
2022/08/26 01:57:15;;;;;;;4.63;2.85;;;;;;;9.56;100.00;101387.66;5030808;28;20034;-50
2022/08/26 01:59:41;;;;;;;5.00;3.35;;;;;;;9.58;100.00;101391.78;5024876;28;20049;-51
2022/08/26 02:02:06;;;;;;;2.90;2.60;;;;;;;9.64;100.00;101389.50;5024373;28;20478;-52
2022/08/26 02:04:36;;;;;;;4.95;4.00;;;;;;;9.72;100.00;101390.31;5019520;28;20144;-49
2022/08/26 02:07:05;;;;;;;5.63;4.03;;;;;;;9.79;100.00;101391.31;5014437;28;20045;-55
2022/08/26 02:09:31;;;;;;;11.52;3.90;;;;;;;9.81;100.00;101394.66;5023676;28;20284;-50
2022/08/26 02:12:00;;;;;;;6.75;3.10;;;;;;;9.70;100.00;101394.94;5015474;28;20295;-48
2022/08/26 02:14:29;;;;;;;9.00;2.85;;;;;;;9.68;100.00;101396.09;5023133;28;20033;-49
2022/08/26 02:16:55;;;;;;;10.25;3.38;;;;;;;9.68;100.00;101389.00;5024475;28;20108;-52
2022/08/26 02:19:30;;;;;;;5.20;3.70;;;;;;;9.65;100.00;101396.44;5020465;28;20021;-50
2022/08/26 02:21:59;;;;;;;3.28;2.58;;;;;;;9.54;100.00;101392.28;5014812;28;20025;-50
2022/08/26 02:24:28;;;;;;;7.50;3.08;;;;;;;9.45;100.00;101394.09;5017572;28;20021;-50
2022/08/26 02:26:57;;;;;;;3.60;2.97;;;;;;;9.45;100.00;101401.16;5021410;28;20038;-52
2022/08/26 02:29:30;;;;;;;6.75;3.03;;;;;;;9.49;100.00;101407.81;5028257;28;20079;-49
2022/08/26 02:31:56;;;;;;;7.00;2.78;;;;;;;9.50;100.00;101398.88;5027077;28;20021;-52
2022/08/26 02:34:27;;;;;;;3.55;3.25;;;;;;;9.52;100.00;101391.59;5020406;28;20399;-51
2022/08/26 02:36:52;;;;;;;7.53;3.42;;;;;;;9.58;100.00;101399.72;5023690;28;20025;-51
2022/08/26 02:39:18;;;;;;;10.02;4.22;;;;;;;9.55;100.00;101399.22;5022578;28;20140;-51
2022/08/26 02:41:44;;;;;;;12.13;3.40;;;;;;;9.50;100.00;101394.44;5025132;28;20387;-51
2022/08/26 02:44:10;;;;;;;2.65;2.45;;;;;;;9.50;100.00;101398.88;5024623;28;20092;-49
2022/08/26 02:46:36;;;;;;;2.88;1.98;;;;;;;9.52;100.00;101394.25;5025631;28;20049;-49
2022/08/26 02:49:02;;;;;;;3.75;1.98;;;;;;;9.52;100.00;101394.25;5025843;28;20444;-52
2022/08/26 02:51:28;;;;;;;14.68;3.83;;;;;;;9.52;100.00;101388.94;5015686;28;20084;-49
2022/08/26 02:53:54;;;;;;;7.35;2.42;;;;;;;9.49;100.00;101395.41;5020327;28;20033;-48
2022/08/26 02:56:19;;;;;;;16.27;3.90;;;;;;;9.49;100.00;101398.03;5017757;28;20105;-50
2022/08/26 02:58:45;;;;;;;2.83;2.20;;;;;;;9.49;100.00;101394.56;5022377;28;20406;-53
2022/08/26 03:01:22;;;;;;;2.38;2.17;;;;;;;9.51;100.00;101401.38;5017898;28;20776;-50
2022/08/26 03:03:47;;;;;;;2.50;2.22;;;;;;;9.56;100.00;101407.00;5030002;28;20577;-49
2022/08/26 03:06:12;;;;;;;2.92;2.72;;;;;;;9.54;100.00;101408.16;5022878;28;20033;-51
2022/08/26 03:08:38;;;;;;;2.58;2.13;;;;;;;9.50;100.00;101409.47;5029588;28;20029;-50
2022/08/26 03:11:03;;;;;;;2.67;1.58;;;;;;;9.48;100.00;101411.47;5025312;28;20037;-51
2022/08/26 03:13:29;;;;;;;4.55;3.00;;;;;;;9.51;100.00;101405.84;5023497;28;20064;-52
2022/08/26 03:15:55;;;;;;;2.03;1.58;;;;;;;9.54;100.00;101408.97;5018852;28;20025;-51
2022/08/26 03:18:21;;;;;;;8.90;2.65;;;;;;;9.48;100.00;101408.81;5014015;28;20330;-49
2022/08/26 03:20:46;;;;;;;4.85;2.33;;;;;;;9.42;100.00;101412.09;5026973;28;20037;-49
2022/08/26 03:23:11;;;;;;;6.35;2.05;;;;;;;9.33;100.00;101412.06;5025276;28;20033;-49
2022/08/26 03:25:37;;;;;;;2.63;2.45;;;;;;;9.28;100.00;101405.59;5025257;28;20037;-54
2022/08/26 03:28:02;;;;;;;5.63;2.90;;;;;;;9.24;100.00;101409.53;5027696;28;20439;-50
2022/08/26 03:30:40;;;;;;;3.67;2.42;;;;;;;9.18;100.00;101409.19;5021964;28;20053;-53
2022/08/26 03:33:07;;;;;;;3.60;2.15;;;;;;;9.21;100.00;101413.31;5030938;28;20397;-53
2022/08/26 03:35:33;;;;;;;3.28;2.25;;;;;;;9.20;100.00;101408.22;5027427;28;20021;-50
2022/08/26 03:38:00;;;;;;;2.58;2.38;;;;;;;9.20;100.00;101401.09;5024505;28;20025;-51
2022/08/26 03:40:25;;;;;;;2.85;2.65;;;;;;;9.21;100.00;101397.44;5018425;28;20032;-51
2022/08/26 03:42:52;;;;;;;1.83;1.60;;;;;;;9.25;100.00;101398.81;5024225;28;20061;-50
2022/08/26 03:45:19;;;;;;;4.05;2.10;;;;;;;9.27;100.00;101399.47;5025231;28;20041;-49
2022/08/26 03:47:46;;;;;;;2.60;2.30;;;;;;;9.23;100.00;101390.19;5024016;28;20030;-49
2022/08/26 03:50:14;;;;;;;2.58;2.38;;;;;;;9.18;100.00;101392.47;5014871;28;20172;-49
2022/08/26 03:52:41;;;;;;;5.13;2.50;;;;;;;9.15;100.00;101393.63;5023041;28;20025;-50
2022/08/26 03:55:07;;;;;;;2.95;2.65;;;;;;;9.12;100.00;101390.50;5027325;28;20034;-51
2022/08/26 03:57:32;;;;;;;3.22;2.60;;;;;;;9.12;100.00;101398.44;5027379;28;20028;-52
2022/08/26 03:59:59;;;;;;;6.22;3.38;;;;;;;9.19;100.00;101394.16;5021039;28;20100;-52
2022/08/26 04:02:25;;;;;;;2.60;2.40;;;;;;;9.23;100.00;101387.53;5028609;28;20056;-50
2022/08/26 04:04:50;;;;;;;2.65;2.45;;;;;;;9.27;100.00;101383.59;5031339;28;20052;-54
2022/08/26 04:07:15;;;;;;;8.25;3.75;;;;;;;9.30;100.00;101382.44;5023125;28;20076;-48
2022/08/26 04:09:41;;;;;;;3.13;2.85;;;;;;;9.26;100.00;101379.28;5024283;28;20030;-50
2022/08/26 04:12:07;;;;;;;2.97;2.70;;;;;;;9.22;100.00;101385.91;5022424;28;20084;-54
2022/08/26 04:14:34;;;;;;;3.70;2.45;;;;;;;9.22;100.00;101380.59;5025352;28;20029;-52
2022/08/26 04:17:00;;;;;;;5.28;2.88;;;;;;;9.22;100.00;101379.78;5025994;28;20037;-52
2022/08/26 04:19:25;;;;;;;5.38;3.35;;;;;;;9.19;100.00;101380.94;5021471;28;20060;-49
2022/08/26 04:21:51;;;;;;;3.88;3.35;;;;;;;9.14;100.00;101373.47;5025691;28;20444;-51
2022/08/26 04:24:18;;;;;;;3.53;3.22;;;;;;;9.11;100.00;101375.59;5029650;28;20379;-52
2022/08/26 04:26:44;;;;;;;8.05;3.08;;;;;;;9.08;100.00;101368.78;5021973;28;20065;-50
2022/08/26 04:29:17;;;;;;;4.03;3.47;;;;;;;9.09;100.00;101369.66;5020786;28;20068;-49
2022/08/26 04:31:43;;;;;;;3.50;3.20;;;;;;;9.08;100.00;101365.31;5017462;28;20054;-48
2022/08/26 04:34:09;;;;;;;11.38;3.00;;;;;;;9.05;100.00;101368.28;5022985;28;20032;-49
2022/08/26 04:36:35;;;;;;;7.68;3.05;;;;;;;9.03;100.00;101372.91;5026868;28;20378;-51
2022/08/26 04:39:02;;;;;;;4.38;3.45;;;;;;;9.03;100.00;101370.25;5019035;28;20040;-48
2022/08/26 04:41:28;;;;;;;6.57;3.00;;;;;;;9.03;100.00;101370.25;5022986;28;20167;-50
2022/08/26 04:43:53;;;;;;;17.58;3.38;;;;;;;9.07;100.00;101376.91;5022024;28;20125;-50
2022/08/26 04:46:23;;;;;;;19.65;4.72;;;;;;;9.04;100.00;101375.41;5023705;28;20044;-49
2022/08/26 04:48:50;;;;;;;5.90;3.15;;;;;;;9.03;100.00;101383.50;5023510;28;20065;-52
2022/08/26 04:51:17;;;;;;;6.75;2.78;;;;;;;9.03;100.00;101383.50;5020274;28;20079;-52
2022/08/26 04:53:43;;;;;;;2.85;2.28;;;;;;;9.04;100.00;101382.53;5024876;28;20025;-53
2022/08/26 04:56:08;;;;;;;2.63;2.20;;;;;;;9.02;100.00;101380.03;5026703;28;20041;-51
2022/08/26 04:58:34;;;;;;;2.78;2.58;;;;;;;8.98;100.00;101381.31;5022480;28;20075;-49
2022/08/26 05:01:00;;;;;;;3.53;2.80;;;;;;;8.96;100.00;101375.38;5024066;28;20374;-50
2022/08/26 05:03:26;;;;;;;6.13;2.92;;;;;;;8.96;100.00;101385.97;5015690;28;20030;-48
2022/08/26 05:05:52;;;;;;;7.55;2.88;;;;;;;8.93;100.00;101384.47;5019873;28;20436;-50
2022/08/26 05:08:19;;;;;;;3.13;2.53;;;;;;;8.89;100.00;101384.94;5019235;28;20522;-54
2022/08/26 05:10:48;;;;;;;3.90;2.58;;;;;;;8.86;100.00;101385.25;5026474;28;20022;-51
2022/08/26 05:13:16;;;;;;;3.47;2.47;;;;;;;8.85;100.00;101383.56;5019370;28;20057;-50
2022/08/26 05:15:42;;;;;;;7.88;3.50;;;;;;;8.82;100.00;101390.00;5021692;28;20061;-51
2022/08/26 05:18:09;;;;;;;2.47;2.28;;;;;;;8.77;100.00;101386.19;5024755;28;20048;-52
2022/08/26 05:20:43;;;;;;;2.70;2.47;;;;;;;8.74;100.00;101388.16;5027845;28;20060;-50
2022/08/26 05:23:08;;;;;;;4.72;3.90;;;;;;;8.77;100.00;101397.56;5017364;28;20029;-51
2022/08/26 05:25:39;;;;;;;10.82;1.73;;;;;;;8.76;100.00;101397.75;5019031;28;20442;-54
2022/08/26 05:28:04;;;;;;;2.67;2.47;;;;;;;8.77;100.00;101399.41;5024235;28;20494;-52
2022/08/26 05:30:30;;;;;;;4.15;2.22;;;;;;;8.73;100.00;101401.53;5025427;28;20048;-51
2022/08/26 05:32:55;;;;;;;4.53;2.90;;;;;;;8.73;100.00;101406.81;5027060;28;20141;-52
2022/08/26 05:35:21;;;;;;;2.63;2.42;;;;;;;8.70;100.00;101402.69;5017687;28;20026;-52
2022/08/26 05:37:48;;;;;;;2.28;2.10;;;;;;;8.67;100.00;101397.72;5015001;28;20356;-52
2022/08/26 05:40:14;;;;;;;1.70;1.60;;;;;;;8.64;100.00;101397.16;5025942;28;20549;-52
2022/08/26 05:42:39;;;;;;;2.90;2.17;;;;;;;8.61;100.00;101400.13;5028749;28;20030;-49
2022/08/26 05:45:05;;;;;;;3.92;2.85;;;;;;;8.58;100.00;101392.53;5025680;28;20090;-55
2022/08/26 05:47:30;;;;;;;4.75;2.22;;;;;;;8.58;100.00;101389.88;5021072;28;20145;-48
2022/08/26 05:49:55;;;;;;;5.20;3.33;;;;;;;8.57;100.00;101393.47;5023655;28;20159;-49
2022/08/26 05:52:21;;;;;;;5.45;3.60;;;;;;;8.62;100.00;101391.19;5021019;28;20105;-52
2022/08/26 05:54:47;;;;;;;5.55;3.22;;;;;;;8.62;100.00;101388.56;5018119;28;20025;-48
2022/08/26 05:57:12;;;;;;;6.93;4.40;;;;;;;8.59;100.00;101391.53;5023528;28;20044;-50
2022/08/26 05:59:38;;;;;;;7.88;2.70;;;;;;;8.62;100.00;101388.56;5015492;28;20120;-50
2022/08/26 06:02:05;;;;;;;2.42;2.22;;;;;;;8.61;100.00;101387.75;5021132;28;20092;-49
2022/08/26 06:04:31;;;;;;;3.25;2.83;;;;;;;8.61;100.00;101397.50;5020063;28;20068;-51
2022/08/26 06:06:57;;;;;;;2.47;2.13;;;;;;;8.64;100.00;101397.16;5021992;28;20037;-51
2022/08/26 06:09:23;;;;;;;1.98;1.77;;;;;;;8.64;100.00;101395.34;5017582;28;20152;-50
2022/08/26 06:11:48;;;;;;;2.55;2.25;;;;;;;8.67;100.00;101389.78;5020069;28;20151;-48
2022/08/26 06:14:14;;;;;;;1.95;1.85;;;;;;;8.68;100.00;101390.59;5019233;28;20042;-49
2022/08/26 06:16:43;;;;;;;1.92;1.42;;;;;;;8.68;100.00;101393.25;5024729;28;20036;-52
2022/08/26 06:19:09;;;;;;;2.00;1.90;;;;;;;8.69;100.00;101387.78;5019326;28;20056;-48
2022/08/26 06:21:37;;;;;;;1.90;1.80;;;;;;;8.73;100.00;101385.66;5021463;28;20037;-48
2022/08/26 06:26:52;;;;;;;1.45;1.23;;;;;;;8.80;100.00;101396.44;5015751;28;20268;-50
2022/08/26 06:29:20;;;;;;;2.15;1.95;;;;;;;8.84;100.00;101395.97;5021267;28;20076;-52
2022/08/26 06:31:46;;;;;;;2.10;1.60;;;;;;;8.91;100.00;101399.66;5018555;28;20091;-51
2022/08/26 06:34:11;;;;;;;1.48;1.38;;;;;;;9.00;100.00;101408.44;5019991;28;20100;-50
2022/08/26 06:36:40;;;;;;;2.38;1.52;;;;;;;9.05;100.00;101406.16;5020147;28;20802;-51
2022/08/26 06:39:08;;;;;;;2.05;1.95;;;;;;;9.13;100.00;101411.47;5018045;28;20041;-49
2022/08/26 06:41:34;;;;;;;1.55;1.45;;;;;;;9.20;100.00;101403.75;5022318;28;20083;-51
2022/08/26 06:44:01;;;;;;;2.33;2.13;;;;;;;9.27;100.00;101412.72;5023342;28;20018;-50
2022/08/26 06:46:27;;;;;;;2.55;2.03;;;;;;;9.34;100.00;101410.25;5020650;28;20521;-49
2022/08/26 06:48:53;;;;;;;2.40;2.20;;;;;;;9.39;100.00;101407.94;5023009;28;20029;-50
2022/08/26 06:51:24;;;;;;;2.63;2.42;;;;;;;9.49;100.00;101408.63;5024255;28;20079;-49
2022/08/26 06:53:52;;;;;;;2.30;2.10;;;;;;;9.60;100.00;101408.34;5018806;28;20069;-54
2022/08/26 06:56:21;;;;;;;4.90;2.55;;;;;;;9.70;100.00;101402.88;5022453;28;20025;-53
2022/08/26 06:58:47;;;;;;;3.53;1.98;;;;;;;9.87;100.00;101405.59;5018253;28;20029;-49
2022/08/26 07:01:23;;;;;;;1.73;1.63;;;;;;;10.01;100.00;101402.28;5014379;28;20038;-54
2022/08/26 07:03:51;;;;;;;2.55;2.10;;;;;;;10.16;100.00;101407.75;5022050;28;20033;-50
2022/08/26 07:06:18;;;;;;;2.83;2.63;;;;;;;10.31;100.00;101414.06;5021090;28;20431;-50
2022/08/26 07:08:47;;;;;;;2.97;2.72;;;;;;;10.43;100.00;101411.94;5022793;28;20065;-50
2022/08/26 07:11:13;;;;;;;3.05;2.75;;;;;;;10.57;100.00;101416.53;5022494;28;20029;-51
2022/08/26 07:13:38;;;;;;;2.53;2.22;;;;;;;10.72;100.00;101411.38;5017585;28;20116;-48
2022/08/26 07:16:10;;;;;;;2.75;2.55;;;;;;;10.88;100.00;101411.31;5022989;28;20041;-50
2022/08/26 07:18:36;;;;;;;3.10;2.67;;;;;;;11.01;100.00;101416.09;5021268;28;20044;-53
2022/08/26 07:21:04;;;;;;;3.13;2.88;;;;;;;11.16;100.00;101416.22;5024750;28;20454;-52
2022/08/26 07:23:30;;;;;;;4.68;3.25;;;;;;;11.33;100.00;101416.97;5019410;28;20030;-54
2022/08/26 07:25:55;;;;;;;3.55;3.25;;;;;;;11.44;100.00;101424.56;5019983;28;20032;-54
2022/08/26 07:28:21;;;;;;;4.97;2.97;;;;;;;11.61;100.00;101421.81;5022597;28;20034;-53
2022/08/26 07:30:47;;;;;;;3.83;3.35;;;;;;;11.70;100.00;101423.44;5024797;28;20017;-53
2022/08/26 07:33:13;;;;;;;5.53;3.20;;;;;;;11.86;100.00;101423.34;5020241;28;20087;-50
2022/08/26 07:35:38;;;;;;;3.38;2.88;;;;;;;12.06;100.00;101422.88;5023718;28;20021;-53
2022/08/26 07:38:03;;;;;;;3.60;3.30;;;;;;;12.27;100.00;101422.22;5023364;28;20033;-50
2022/08/26 07:40:29;;;;;;;5.50;2.97;;;;;;;12.46;100.00;101432.34;5023588;28;20108;-52
2022/08/26 07:42:55;;;;;;;4.25;2.70;;;;;;;12.65;100.00;101426.53;5020860;28;20104;-50
2022/08/26 07:45:20;;;;;;;3.10;2.80;;;;;;;12.86;100.00;101428.47;5021494;28;20036;-50
2022/08/26 07:47:46;;;;;;;7.95;4.05;;;;;;;13.06;100.00;101434.06;5022160;28;20542;-50
2022/08/26 07:50:12;;;;;;;4.22;3.35;;;;;;;13.29;100.00;101433.16;5027788;28;20479;-51
2022/08/26 07:52:37;;;;;;;3.42;3.10;;;;;;;13.50;100.00;101435.03;5021173;28;20072;-53
2022/08/26 07:55:05;;;;;;;4.13;2.75;;;;;;;13.70;100.00;101433.44;5020419;28;20137;-50
2022/08/26 07:57:30;;;;;;;2.60;2.38;;;;;;;13.90;100.00;101435.50;5024383;28;20033;-55
2022/08/26 07:59:57;;;;;;;3.45;3.15;;;;;;;14.09;100.00;101445.50;5024144;28;20104;-57
2022/08/26 08:02:23;;;;;;;2.67;2.47;;;;;;;14.24;100.00;101442.78;5027977;28;20113;-55
2022/08/26 08:04:50;;;;;;;4.82;2.67;;;;;;;14.43;100.00;101440.47;5025865;28;20030;-53
2022/08/26 08:07:15;;;;;;;2.63;1.95;;;;;;;14.58;100.00;101449.25;5020785;28;20040;-55
2022/08/26 08:09:41;;;;;;;1.73;1.45;;;;;;;14.70;100.00;101446.88;5025522;28;20029;-52
2022/08/26 08:12:06;;;;;;;1.23;1.13;;;;;;;14.85;100.00;101434.25;5014979;28;20034;-56
2022/08/26 08:14:33;;;;;;;2.10;1.00;;;;;;;14.97;100.00;101438.03;5021097;28;20028;-56
2022/08/26 08:16:59;;;;;;;3.00;1.42;;;;;;;15.10;100.00;101433.75;5018340;28;20053;-53
2022/08/26 08:19:24;;;;;;;1.85;1.27;;;;;;;15.19;100.00;101429.91;5012720;28;20112;-55
2022/08/26 08:21:50;;;;;;;0.52;0.50;;;;;;;15.35;100.00;101421.56;5018149;28;20448;-52
2022/08/26 08:24:15;;;;;;;0.82;0.30;;;;;;;15.59;100.00;101417.53;5018216;28;20033;-55
2022/08/26 08:26:40;;;;;;;2.80;0.20;;;;;;;15.77;100.00;101403.59;5014491;28;20025;-52
2022/08/26 08:29:07;;;;;;;3.75;0.47;;;;;;;15.95;100.00;101381.63;5016691;28;20033;-54
2022/08/26 08:31:34;;;;;;;1.40;0.20;;;;;;;16.11;100.00;101365.19;5018075;28;20048;-56
2022/08/26 08:34:00;;;;;;;0.10;0.08;;;;;;;16.31;100.00;101354.44;5014604;28;20052;-56
2022/08/26 08:36:25;;;;;;;2.60;0.10;;;;;;;16.51;100.00;101335.69;5018707;28;20402;-53
2022/08/26 08:38:51;;;;;;;2.30;0.60;;;;;;;16.61;100.00;101321.06;5015033;28;20030;-58
2022/08/26 08:41:49;;;;;;;5.43;0.75;;;;;;;16.66;100.00;101311.34;5014219;28;20037;-56
2022/08/26 08:44:18;;;;;;;2.65;0.60;;;;;;;16.84;100.00;101304.53;5025476;28;20064;-52
2022/08/26 08:46:57;;;;;;;1.63;0.20;;;;;;;16.92;100.00;101296.25;5017197;28;20021;-52
2022/08/26 08:49:24;;;;;;;0.77;0.30;;;;;;;16.91;100.00;101291.91;5020888;28;20042;-52
2022/08/26 08:52:31;;;;;;;0.85;0.10;;;;;;;16.98;100.00;101295.41;5017311;28;20030;-52
2022/08/26 08:54:57;;;;;;;1.85;0.57;;;;;;;17.21;100.00;101300.22;5014486;28;20072;-51
2022/08/26 08:57:39;;;;;;;0.40;0.40;;;;;;;17.38;100.00;101301.38;5019611;28;20032;-55
2022/08/26 09:00:11;;;;;;;0.73;0.73;;;;;;;17.46;100.00;101288.75;5020240;28;20071;-49
2022/08/26 09:02:55;;;;;;;2.75;0.43;;;;;;;17.51;100.00;101289.72;5020966;28;20108;-54
2022/08/26 09:05:31;;;;;;;1.05;0.70;;;;;;;17.57;100.00;101288.84;5020916;28;20044;-57
2022/08/26 09:08:01;;;;;;;2.55;0.63;;;;;;;17.82;100.00;101278.16;5022250;28;20382;-55
2022/08/26 09:10:33;;;;;;;1.33;0.30;;;;;;;17.95;100.00;101282.59;5017985;28;20033;-54
2022/08/26 09:13:17;;;;;;;0.90;0.00;;;;;;;18.04;100.00;101261.66;5054026;28;20407;-52
2022/08/26 09:15:58;;;;;;;0.10;0.00;;;;;;;18.11;100.00;101264.28;5051295;28;20033;-57
2022/08/26 09:18:29;;;;;;;0.68;0.38;;;;;;;18.19;100.00;101253.25;5056384;28;20032;-54
2022/08/26 09:20:58;;;;;;;1.45;0.40;;;;;;;18.20;100.00;101246.84;5053933;28;20060;-59
2022/08/26 09:23:25;;;;;;;1.58;0.08;;;;;;;18.33;100.00;101254.78;5056361;28;20046;-56
2022/08/26 09:26:00;;;;;;;1.88;0.17;;;;;;;18.43;100.00;101263.13;5050584;28;20477;-61
2022/08/26 09:28:29;;;;;;;0.75;0.00;;;;;;;18.57;100.00;101249.53;5048743;28;20059;-55
2022/08/26 09:31:19;;;;;;;2.05;0.28;;;;;;;18.62;100.00;101255.88;5049923;28;20039;-56
2022/08/26 09:33:44;;;;;;;1.92;0.30;;;;;;;18.78;100.00;101253.63;5052281;28;20542;-57
2022/08/26 09:36:21;;;;;;;0.28;0.10;;;;;;;18.84;100.00;101250.84;5054388;28;20104;-57
2022/08/26 09:38:46;;;;;;;4.93;0.65;;;;;;;18.89;100.00;101264.44;5056830;28;20048;-57
2022/08/26 09:41:19;;;;;;;0.35;0.10;;;;;;;18.98;100.00;101248.00;5055799;28;20491;-56
2022/08/26 09:44:06;;;;;;;0.63;0.63;;;;;;;19.16;100.00;101253.31;5049320;28;20647;-57
2022/08/26 09:46:32;;;;;;;2.15;0.45;;;;;;;19.18;100.00;101253.91;5046638;28;20456;-59
2022/08/26 09:49:20;;;;;;;3.50;0.30;;;;;;;19.29;100.00;101247.75;5048923;28;20453;-58
2022/08/26 09:51:45;;;;;;;4.47;0.93;;;;;;;19.30;100.00;101241.31;5052730;28;20025;-54
2022/08/26 09:54:25;;;;;;;2.75;0.10;;;;;;;19.47;100.00;101243.34;5042621;28;20055;-61
2022/08/26 09:56:52;;;;;;;4.85;1.13;;;;;;;19.50;100.00;101240.19;5044801;28;20138;-55
2022/08/26 09:59:28;;;;;;;2.13;0.28;;;;;;;19.52;100.00;101235.41;5052927;28;20067;-58
2022/08/26 10:01:54;;;;;;;18.45;0.82;;;;;;;19.61;100.00;101236.69;5049276;28;20133;-58
2022/08/26 10:04:22;;;;;;;0.65;0.32;;;;;;;19.80;100.00;101238.25;5052086;28;20029;-57
2022/08/26 10:07:03;;;;;;;3.13;0.82;;;;;;;19.88;100.00;101233.56;5046855;28;20029;-59
2022/08/26 10:09:34;;;;;;;5.72;0.20;;;;;;;19.96;100.00;101231.34;5051044;28;20409;-59
2022/08/26 10:12:05;;;;;;;2.28;0.17;;;;;;;20.03;100.00;101231.22;5049713;28;20207;-55
2022/08/26 10:14:39;;;;;;;2.47;0.40;;;;;;;20.12;100.00;101232.50;5043796;28;20035;-59
2022/08/26 10:17:07;;;;;;;1.95;0.40;;;;;;;20.19;100.00;101233.19;5045165;28;20631;-53
2022/08/26 10:19:39;;;;;;;0.50;0.13;;;;;;;20.34;100.00;101231.88;5048920;28;20075;-55
2022/08/26 10:22:12;;;;;;;0.45;0.40;;;;;;;20.40;100.00;101220.97;5058007;28;20436;-58
2022/08/26 10:24:43;;;;;;;3.45;0.73;;;;;;;20.33;100.00;101222.97;5040154;28;20033;-57
2022/08/26 10:27:32;;;;;;;1.25;0.30;;;;;;;20.38;100.00;101220.38;5038206;28;20063;-59
2022/08/26 10:30:05;;;;;;;1.05;0.20;;;;;;;20.41;100.00;101225.28;5041952;28;20045;-58
2022/08/26 10:32:37;;;;;;;2.83;0.50;;;;;;;20.55;100.00;101223.19;5039952;28;20095;-58
2022/08/26 10:35:06;;;;;;;3.33;0.45;;;;;;;20.82;100.00;101222.63;5042351;28;20119;-57
2022/08/26 10:37:36;;;;;;;3.72;0.70;;;;;;;20.85;100.00;101212.16;5035196;28;20543;-54
2022/08/26 10:40:25;;;;;;;2.83;0.52;;;;;;;20.98;100.00;101215.63;5039769;28;20560;-57
2022/08/26 10:42:56;;;;;;;3.35;1.92;;;;;;;21.00;100.00;101211.63;5038470;28;20746;-59
2022/08/26 10:45:25;;;;;;;3.63;0.95;;;;;;;21.12;100.00;101208.88;5042670;28;20032;-59
2022/08/26 10:48:15;;;;;;;8.15;0.63;;;;;;;21.18;100.00;101199.81;5038768;28;20057;-60
2022/08/26 10:50:42;;;;;;;4.90;0.90;;;;;;;21.16;100.00;101196.53;5032462;28;20036;-59
2022/08/26 10:53:33;;;;;;;1.30;1.02;;;;;;;21.25;100.00;101195.06;5020919;28;20139;-58
2022/08/26 10:56:23;;;;;;;3.15;1.40;;;;;;;21.53;100.00;101196.91;5029003;28;20044;-58
2022/08/26 10:58:53;;;;;;;3.33;1.30;;;;;;;21.67;100.00;101186.56;5025588;28;20087;-63
2022/08/26 11:01:40;;;;;;;2.15;0.90;;;;;;;21.67;100.00;101178.47;5027565;28;20314;-50
2022/08/26 11:04:24;;;;;;;2.35;1.27;;;;;;;21.53;100.00;101193.38;5018523;28;20389;-57
2022/08/26 11:07:31;;;;;;;2.75;0.55;;;;;;;21.42;100.00;101180.78;5030708;28;20037;-60
2022/08/26 11:09:59;;;;;;;5.45;1.67;;;;;;;21.02;100.00;101195.22;5029262;28;20536;-59
2022/08/26 11:12:33;;;;;;;2.05;0.90;;;;;;;20.97;100.00;101198.63;5030112;28;20321;-56
2022/08/26 11:15:00;;;;;;;5.68;0.82;;;;;;;21.21;100.00;101187.72;5029433;28;20040;-57
2022/08/26 11:17:57;;;;;;;2.92;0.55;;;;;;;21.58;100.00;101179.13;5027332;28;20033;-55
2022/08/26 11:20:31;;;;;;;2.58;0.50;;;;;;;22.02;100.00;101177.34;5018962;28;20099;-54
2022/08/26 11:23:22;;;;;;;1.52;0.28;;;;;;;22.47;100.00;101173.56;5027627;28;20119;-57
2022/08/26 11:26:08;;;;;;;2.75;0.70;;;;;;;22.59;100.00;101173.44;5022034;28;20032;-58
2022/08/26 11:28:38;;;;;;;4.88;1.00;;;;;;;22.77;100.00;101183.06;5035202;28;20037;-58
2022/08/26 11:31:08;;;;;;;5.57;0.73;;;;;;;23.00;100.00;101176.53;5035839;28;20484;-55
2022/08/26 11:33:56;;;;;;;5.22;1.00;;;;;;;23.40;100.00;101177.97;5029447;28;20068;-62